createdAt,value
2018-02-09T00:01:38.200Z,-1.08
2018-02-09T00:04:05.913Z,-1.07
2018-02-09T00:06:33.744Z,-1.08
2018-02-09T00:09:01.523Z,-1.10
2018-02-09T00:11:29.228Z,-1.12
2018-02-09T00:13:57.029Z,-1.12
2018-02-09T00:16:24.653Z,-1.15
2018-02-09T00:18:52.423Z,-1.16
2018-02-09T00:21:20.164Z,-1.16
2018-02-09T00:23:47.821Z,-1.14
2018-02-09T00:26:15.794Z,-1.15
2018-02-09T00:28:43.515Z,-1.18
2018-02-09T00:31:11.227Z,-1.20
2018-02-09T00:33:39.199Z,-1.24
2018-02-09T00:36:06.948Z,-1.25
2018-02-09T00:38:34.635Z,-1.26
2018-02-09T00:41:02.339Z,-1.26
2018-02-09T00:43:30.085Z,-1.28
2018-02-09T00:45:57.837Z,-1.26
2018-02-09T00:48:25.443Z,-1.27
2018-02-09T00:50:53.334Z,-1.27
2018-02-09T00:53:21.031Z,-1.29
2018-02-09T00:55:48.740Z,-1.31
2018-02-09T00:58:16.523Z,-1.30
2018-02-09T01:00:44.253Z,-1.31
2018-02-09T01:03:12.022Z,-1.33
2018-02-09T01:06:04.989Z,-1.32
2018-02-09T01:08:32.696Z,-1.31
2018-02-09T01:11:00.354Z,-1.29
2018-02-09T01:13:28.031Z,-1.30
2018-02-09T01:15:55.886Z,-1.28
2018-02-09T01:18:23.823Z,-1.29
2018-02-09T01:20:51.558Z,-1.29
2018-02-09T01:23:19.219Z,-1.26
2018-02-09T01:25:46.860Z,-1.27
2018-02-09T01:28:15.997Z,-1.27
2018-02-09T01:30:43.712Z,-1.27
2018-02-09T01:33:11.363Z,-1.28
2018-02-09T01:35:39.049Z,-1.28
2018-02-09T01:38:06.788Z,-1.23
2018-02-09T01:40:34.499Z,-1.22
2018-02-09T01:43:02.205Z,-1.20
2018-02-09T01:45:29.886Z,-1.21
2018-02-09T01:47:57.551Z,-1.20
2018-02-09T01:50:25.256Z,-1.17
2018-02-09T01:52:52.905Z,-1.17
2018-02-09T01:55:21.145Z,-1.18
2018-02-09T01:57:49.514Z,-1.17
2018-02-09T02:00:17.477Z,-1.15
2018-02-09T02:02:45.448Z,-1.17
2018-02-09T02:05:13.263Z,-1.17
2018-02-09T02:07:40.874Z,-1.15
2018-02-09T02:10:08.843Z,-1.14
2018-02-09T02:12:36.709Z,-1.14
2018-02-09T02:15:04.424Z,-1.15
2018-02-09T02:17:32.084Z,-1.16
2018-02-09T02:19:59.719Z,-1.15
2018-02-09T02:22:27.738Z,-1.15
2018-02-09T02:24:55.497Z,-1.16
2018-02-09T02:27:23.422Z,-1.16
2018-02-09T02:29:51.137Z,-1.16
2018-02-09T02:32:18.828Z,-1.14
2018-02-09T02:34:46.536Z,-1.18
2018-02-09T02:37:14.198Z,-1.14
2018-02-09T02:39:41.881Z,-1.12
2018-02-09T02:42:09.527Z,-1.14
2018-02-09T02:44:37.220Z,-1.16
2018-02-09T02:47:04.868Z,-1.12
2018-02-09T02:49:32.536Z,-1.17
2018-02-09T02:52:00.215Z,-1.16
2018-02-09T02:54:27.848Z,-1.15
2018-02-09T02:56:55.501Z,-1.15
2018-02-09T02:59:23.221Z,-1.16
2018-02-09T03:01:50.869Z,-1.18
2018-02-09T03:04:18.570Z,-1.19
2018-02-09T03:06:46.277Z,-1.21
2018-02-09T03:09:13.979Z,-1.25
2018-02-09T03:11:41.618Z,-1.27
2018-02-09T03:14:09.705Z,-1.30
2018-02-09T03:16:37.364Z,-1.29
2018-02-09T03:19:04.994Z,-1.31
2018-02-09T03:21:33.005Z,-1.33
2018-02-09T03:24:00.638Z,-1.32
2018-02-09T03:26:28.295Z,-1.33
2018-02-09T03:28:55.950Z,-1.37
2018-02-09T03:31:23.620Z,-1.40
2018-02-09T03:33:51.733Z,-1.44
2018-02-09T03:36:19.403Z,-1.47
2018-02-09T03:38:47.108Z,-1.45
2018-02-09T03:41:14.714Z,-1.46
2018-02-09T03:43:42.324Z,-1.50
2018-02-09T03:46:09.963Z,-1.52
2018-02-09T03:48:37.563Z,-1.52
2018-02-09T03:51:05.201Z,-1.53
2018-02-09T03:53:32.841Z,-1.53
2018-02-09T03:56:00.503Z,-1.54
2018-02-09T03:58:28.100Z,-1.57
2018-02-09T04:00:55.719Z,-1.57
2018-02-09T04:03:23.669Z,-1.58
2018-02-09T04:05:51.287Z,-1.58
2018-02-09T04:08:19.496Z,-1.61
2018-02-09T04:10:47.131Z,-1.64
2018-02-09T04:13:14.737Z,-1.66
2018-02-09T04:15:42.496Z,-1.67
2018-02-09T04:18:10.102Z,-1.70
2018-02-09T04:20:37.719Z,-1.71
2018-02-09T04:23:05.683Z,-1.73
2018-02-09T04:25:33.648Z,-1.73
2018-02-09T04:28:01.225Z,-1.73
2018-02-09T04:30:28.836Z,-1.76
2018-02-09T04:32:56.456Z,-1.77
2018-02-09T04:35:24.110Z,-1.77
2018-02-09T04:37:51.729Z,-1.78
2018-02-09T04:40:19.338Z,-1.78
2018-02-09T04:42:46.921Z,-1.77
2018-02-09T04:45:15.243Z,-1.78
2018-02-09T04:47:42.850Z,-1.79
2018-02-09T04:50:10.483Z,-1.82
2018-02-09T04:52:38.165Z,-1.79
2018-02-09T04:55:05.759Z,-1.80
2018-02-09T04:57:33.351Z,-1.81
2018-02-09T05:00:01.035Z,-1.80
2018-02-09T05:02:28.790Z,-1.80
2018-02-09T05:04:56.636Z,-1.78
2018-02-09T05:07:24.435Z,-1.80
2018-02-09T05:09:52.170Z,-1.78
2018-02-09T05:12:20.022Z,-1.81
2018-02-09T05:14:47.701Z,-1.83
2018-02-09T05:17:15.409Z,-1.85
2018-02-09T05:19:43.291Z,-1.81
2018-02-09T05:22:11.602Z,-1.83
2018-02-09T05:24:39.375Z,-1.84
2018-02-09T05:27:07.125Z,-1.85
2018-02-09T05:29:34.988Z,-1.86
2018-02-09T05:32:02.630Z,-1.90
2018-02-09T05:34:30.267Z,-1.90
2018-02-09T05:36:58.213Z,-1.93
2018-02-09T05:39:25.915Z,-1.95
2018-02-09T05:41:53.713Z,-1.94
2018-02-09T05:44:21.916Z,-1.96
2018-02-09T05:46:49.774Z,-1.98
2018-02-09T05:49:17.459Z,-2.01
2018-02-09T05:51:45.115Z,-1.99
2018-02-09T05:54:12.759Z,-1.98
2018-02-09T05:56:40.547Z,-1.99
2018-02-09T05:59:08.182Z,-1.99
2018-02-09T06:01:35.838Z,-1.98
2018-02-09T06:04:03.617Z,-1.99
2018-02-09T06:06:31.816Z,-1.97
2018-02-09T06:08:59.557Z,-1.97
2018-02-09T06:11:27.200Z,-1.99
2018-02-09T06:13:55.142Z,-1.94
2018-02-09T06:16:22.918Z,-1.96
2018-02-09T06:18:50.934Z,-1.94
2018-02-09T06:21:18.545Z,-1.91
2018-02-09T06:23:46.236Z,-1.92
2018-02-09T06:26:14.038Z,-1.94
2018-02-09T06:28:41.892Z,-1.95
2018-02-09T06:31:09.542Z,-1.93
2018-02-09T06:33:37.143Z,-1.89
2018-02-09T06:36:04.765Z,-1.88
2018-02-09T06:38:32.430Z,-1.89
2018-02-09T06:41:00.019Z,-1.88
2018-02-09T06:43:27.967Z,-1.89
2018-02-09T06:45:55.573Z,-1.90
2018-02-09T06:48:23.215Z,-1.88
2018-02-09T06:50:50.862Z,-1.85
2018-02-09T06:53:18.464Z,-1.84
2018-02-09T06:55:46.131Z,-1.82
2018-02-09T06:58:13.743Z,-1.80
2018-02-09T07:00:41.411Z,-1.79
2018-02-09T07:03:09.010Z,-1.76
2018-02-09T07:05:36.630Z,-1.74
2018-02-09T07:08:04.591Z,-1.72
2018-02-09T07:10:32.397Z,-1.70
2018-02-09T07:13:00.158Z,-1.66
2018-02-09T07:15:27.787Z,-1.65
2018-02-09T07:17:55.436Z,-1.60
2018-02-09T07:20:23.471Z,-1.57
2018-02-09T07:22:51.123Z,-1.53
2018-02-09T07:25:18.798Z,-1.49
2018-02-09T07:27:46.829Z,-1.47
2018-02-09T07:30:14.498Z,-1.45
2018-02-09T07:32:42.418Z,-1.40
2018-02-09T07:35:10.085Z,-1.35
2018-02-09T07:37:37.795Z,-1.32
2018-02-09T07:40:05.561Z,-1.27
2018-02-09T07:42:33.206Z,-1.21
2018-02-09T07:45:00.966Z,-1.16
2018-02-09T07:47:28.607Z,-1.10
2018-02-09T07:49:56.359Z,-1.07
2018-02-09T07:52:24.043Z,-1.04
2018-02-09T07:54:52.127Z,-0.98
2018-02-09T07:57:19.779Z,-0.93
2018-02-09T07:59:47.453Z,-0.88
2018-02-09T08:02:15.059Z,-0.79
2018-02-09T08:04:42.713Z,-0.74
2018-02-09T08:07:10.344Z,-0.70
2018-02-09T08:09:38.038Z,-0.65
2018-02-09T08:12:08.933Z,-0.59
2018-02-09T08:14:36.623Z,-0.53
2018-02-09T08:17:04.266Z,-0.48
2018-02-09T08:19:32.843Z,-0.42
2018-02-09T08:22:00.806Z,-0.35
2018-02-09T08:24:28.698Z,-0.29
2018-02-09T08:26:56.311Z,-0.25
2018-02-09T08:29:24.199Z,-0.21
2018-02-09T08:31:52.584Z,-0.17
2018-02-09T08:34:20.282Z,-0.12
2018-02-09T08:36:47.865Z,-0.07
2018-02-09T08:39:15.874Z,-0.03
2018-02-09T08:41:43.470Z,0.01
2018-02-09T08:44:11.117Z,0.06
2018-02-09T08:46:38.718Z,0.09
2018-02-09T08:49:06.562Z,0.14
2018-02-09T08:51:34.530Z,0.21
2018-02-09T08:54:02.105Z,0.27
2018-02-09T08:56:29.778Z,0.30
2018-02-09T08:58:57.383Z,0.35
2018-02-09T09:01:33.211Z,0.41
2018-02-09T09:04:00.838Z,0.45
2018-02-09T09:06:28.523Z,0.52
2018-02-09T09:08:56.623Z,0.57
2018-02-09T09:11:24.214Z,0.63
2018-02-09T09:13:52.059Z,0.66
2018-02-09T09:16:19.728Z,0.70
2018-02-09T09:18:47.381Z,0.74
2018-02-09T09:21:15.012Z,0.77
2018-02-09T09:23:42.708Z,0.82
2018-02-09T09:26:10.328Z,0.88
2018-02-09T09:28:37.985Z,0.93
2018-02-09T09:31:05.627Z,0.97
2018-02-09T09:33:33.661Z,1.02
2018-02-09T09:36:01.290Z,1.05
2018-02-09T09:38:29.300Z,1.10
2018-02-09T09:40:57.343Z,1.14
2018-02-09T09:43:24.929Z,1.20
2018-02-09T09:45:52.553Z,1.22
2018-02-09T09:48:20.215Z,1.23
2018-02-09T09:50:48.314Z,1.28
2018-02-09T09:53:15.981Z,1.34
2018-02-09T09:55:43.597Z,1.39
2018-02-09T09:58:11.314Z,1.44
2018-02-09T10:00:38.887Z,1.48
2018-02-09T10:03:06.522Z,1.53
2018-02-09T10:05:34.215Z,1.59
2018-02-09T10:08:01.840Z,1.64
2018-02-09T10:10:29.832Z,1.69
2018-02-09T10:12:57.489Z,1.75
2018-02-09T10:15:25.092Z,1.78
2018-02-09T10:17:52.717Z,1.81
2018-02-09T10:20:20.413Z,1.87
2018-02-09T10:22:48.033Z,1.92
2018-02-09T10:25:15.641Z,1.98
2018-02-09T10:27:43.296Z,2.01
2018-02-09T10:30:10.915Z,2.06
2018-02-09T10:32:38.582Z,2.04
2018-02-09T10:35:06.193Z,2.08
2018-02-09T10:37:34.109Z,2.09
2018-02-09T10:40:01.756Z,2.13
2018-02-09T10:42:29.384Z,2.15
2018-02-09T10:44:57.221Z,2.19
2018-02-09T10:47:25.228Z,2.24
2018-02-09T10:49:53.082Z,2.30
2018-02-09T10:52:21.050Z,2.39
2018-02-09T10:54:48.790Z,2.44
2018-02-09T10:57:16.497Z,2.49
2018-02-09T10:59:44.279Z,2.53
2018-02-09T11:02:12.014Z,2.57
2018-02-09T11:04:40.248Z,2.67
2018-02-09T11:07:08.021Z,2.73
2018-02-09T11:09:35.775Z,2.79
2018-02-09T11:12:08.061Z,2.84
2018-02-09T11:14:36.392Z,2.89
2018-02-09T11:17:06.255Z,2.95
2018-02-09T11:19:34.777Z,3.03
2018-02-09T11:22:06.325Z,3.09
2018-02-09T11:24:34.120Z,3.13
2018-02-09T11:27:30.061Z,3.16
2018-02-09T11:33:28.239Z,3.24
2018-02-09T11:38:46.768Z,3.29
2018-02-09T11:41:16.788Z,3.32
2018-02-09T11:44:03.300Z,3.34
2018-02-09T12:01:19.734Z,3.48
2018-02-09T12:06:53.487Z,3.53
2018-02-09T12:12:21.076Z,3.63
2018-02-09T12:20:50.023Z,3.72
2018-02-09T12:23:18.278Z,3.70
2018-02-09T12:25:54.758Z,3.73
2018-02-09T12:28:22.917Z,3.76
2018-02-09T12:30:51.095Z,3.78
2018-02-09T12:33:18.886Z,3.82
2018-02-09T12:35:46.951Z,3.86
2018-02-09T12:38:16.415Z,3.87
2018-02-09T15:07:02.090Z,3.92
2018-02-09T17:58:15.239Z,1.96
2018-02-09T18:03:54.839Z,1.95
2018-02-09T18:11:06.974Z,1.99
2018-02-09T18:13:40.338Z,2.00
2018-02-09T18:16:10.023Z,1.98
2018-02-09T18:18:38.671Z,2.00
2018-02-09T18:21:09.431Z,1.98
2018-02-09T18:23:41.511Z,1.94
2018-02-09T18:26:12.394Z,1.94
2018-02-09T18:28:44.461Z,1.90
2018-02-09T18:31:14.592Z,1.88
2018-02-09T18:33:45.328Z,1.86
2018-02-09T18:36:13.219Z,1.83
2018-02-09T18:38:40.989Z,1.82
2018-02-09T18:41:08.894Z,1.80
2018-02-09T18:43:36.841Z,1.81
2018-02-09T18:46:04.790Z,1.78
2018-02-09T18:48:32.620Z,1.78
2018-02-09T18:51:04.843Z,1.75
2018-02-09T18:53:35.046Z,1.75
2018-02-09T18:56:08.432Z,1.73
2018-02-09T18:58:39.351Z,1.72
2018-02-09T19:01:07.281Z,1.71
2018-02-09T19:03:34.986Z,1.67
2018-02-09T19:06:03.245Z,1.66
2018-02-09T19:08:32.374Z,1.62
2018-02-09T19:11:00.457Z,1.59
2018-02-09T19:13:31.138Z,1.59
2018-02-09T19:16:00.115Z,1.56
2018-02-09T19:18:27.869Z,1.56
2018-02-09T19:20:55.921Z,1.53
2018-02-09T19:23:26.109Z,1.56
2018-02-09T19:25:53.909Z,1.54
2018-02-09T19:28:21.971Z,1.55
2018-02-09T19:30:49.859Z,1.51
2018-02-09T19:33:17.706Z,1.50
2018-02-09T19:38:37.271Z,1.52
2018-02-09T19:41:15.425Z,1.49
2018-02-09T19:46:41.362Z,1.47
2018-02-09T19:49:14.468Z,1.46
2018-02-09T19:51:45.308Z,1.44
2018-02-09T19:54:17.007Z,1.42
2018-02-09T19:56:47.198Z,1.42
2018-02-09T19:59:21.804Z,1.41
2018-02-09T20:01:50.303Z,1.40
2018-02-09T20:04:18.404Z,1.40
2018-02-09T20:09:39.328Z,1.38
2018-02-09T20:12:09.347Z,1.39
2018-02-09T20:14:46.512Z,1.35
2018-02-09T20:17:14.543Z,1.34
2018-02-09T20:19:42.663Z,1.31
2018-02-09T20:22:10.576Z,1.28
2018-02-09T20:24:42.220Z,1.28
2018-02-09T20:27:10.192Z,1.25
2018-02-09T20:32:13.365Z,1.22
2018-02-09T20:34:41.092Z,1.19
2018-02-09T20:50:50.163Z,0.97
2018-02-09T20:53:17.952Z,0.94
2018-02-09T20:55:45.638Z,0.90
2018-02-09T20:58:13.369Z,0.90
2018-02-09T21:00:42.287Z,0.87
2018-02-09T21:03:10.041Z,0.88
2018-02-09T21:05:38.175Z,0.87
2018-02-09T21:08:07.449Z,0.87
2018-02-09T21:10:35.111Z,0.83
2018-02-09T21:13:02.839Z,0.81
2018-02-09T21:15:30.535Z,0.81
2018-02-09T21:17:58.151Z,0.81
2018-02-09T21:20:25.821Z,0.77
2018-02-09T21:22:53.470Z,0.76
2018-02-09T21:25:21.122Z,0.75
2018-02-09T21:27:49.500Z,0.73
2018-02-09T21:30:17.148Z,0.73
2018-02-09T21:32:44.848Z,0.70
2018-02-09T21:35:12.536Z,0.71
2018-02-09T21:37:40.130Z,0.70
2018-02-09T21:40:07.784Z,0.70
2018-02-09T21:42:35.506Z,0.67
2018-02-09T21:45:03.108Z,0.65
2018-02-09T21:47:30.780Z,0.64
2018-02-09T21:49:58.471Z,0.63
2018-02-09T21:52:26.116Z,0.62
2018-02-09T21:54:53.765Z,0.60
2018-02-09T21:57:21.428Z,0.61
2018-02-09T21:59:49.405Z,0.60
2018-02-09T22:02:17.098Z,0.58
2018-02-09T22:04:44.811Z,0.55
2018-02-09T22:07:12.619Z,0.54
2018-02-09T22:09:40.261Z,0.53
2018-02-09T22:12:08.014Z,0.52
2018-02-09T22:14:35.690Z,0.52
2018-02-09T22:17:03.388Z,0.51
2018-02-09T22:19:31.199Z,0.52
2018-02-09T22:21:58.998Z,0.50
2018-02-09T22:24:27.083Z,0.49
2018-02-09T22:26:54.759Z,0.47
2018-02-09T22:29:22.607Z,0.45
2018-02-09T22:31:50.316Z,0.44
2018-02-09T22:34:17.929Z,0.46
2018-02-09T22:36:45.567Z,0.44
2018-02-09T22:39:13.259Z,0.41
2018-02-09T22:41:40.951Z,0.40
2018-02-09T22:44:08.673Z,0.40
2018-02-09T22:46:36.334Z,0.43
2018-02-09T22:49:04.070Z,0.38
2018-02-09T22:51:31.798Z,0.35
2018-02-09T22:53:59.457Z,0.35
2018-02-09T22:56:27.160Z,0.34
2018-02-09T22:58:54.855Z,0.31
2018-02-09T23:01:22.485Z,0.30
2018-02-09T23:03:50.101Z,0.29
2018-02-09T23:06:17.747Z,0.29
2018-02-09T23:08:45.431Z,0.28
2018-02-09T23:11:13.100Z,0.28
2018-02-09T23:13:40.732Z,0.25
2018-02-09T23:16:08.410Z,0.23
2018-02-09T23:18:36.027Z,0.22
2018-02-09T23:21:03.729Z,0.21
2018-02-09T23:23:31.403Z,0.19
2018-02-09T23:26:08.287Z,0.17
2018-02-09T23:28:37.442Z,0.16
2018-02-09T23:31:05.915Z,0.13
2018-02-09T23:33:33.578Z,0.10
2018-02-09T23:36:01.311Z,0.08
2018-02-09T23:38:29.169Z,0.07
2018-02-09T23:40:58.497Z,0.05
2018-02-09T23:43:26.450Z,0.02
2018-02-09T23:45:54.088Z,0.00
2018-02-09T23:48:21.770Z,-0.02
2018-02-09T23:50:49.463Z,-0.04
2018-02-09T23:53:17.106Z,-0.05
2018-02-09T23:55:44.830Z,-0.08
2018-02-09T23:58:12.534Z,-0.11
